Time;durP1;ratioP1;P1;durP2;ratioP2;P2;SDS_P1;SDS_P2;PMS_P1;PMS_P2;Temp;Humidity;BMP_temperature;BMP_pressure;BME280_temperature;BME280_humidity;BME280_pressure;Samples;Min_cycle;Max_cycle;Signal;HPM_P1;HPM_P2
2023/07/10 04:16:31;;;;;;;12.90;9.70;;;;;;;19.36;100.00;100624.84;5556603;32;305980;-85
2023/07/10 04:19:35;;;;;;;10.88;9.00;;;;;;;19.36;100.00;100624.84;5547379;32;34212;-84
2023/07/10 04:22:37;;;;;;;13.05;9.50;;;;;;;18.99;100.00;100628.72;5547636;32;33501;-85
2023/07/10 04:25:40;;;;;;;13.05;8.68;;;;;;;19.10;100.00;100621.62;5547451;32;33732;-85
2023/07/10 04:28:45;;;;;;;12.05;9.05;;;;;;;19.27;100.00;100631.00;5547257;32;33621;-85
2023/07/10 04:31:47;;;;;;;15.93;9.18;;;;;;;19.43;100.00;100633.28;5547132;32;33422;-85
2023/07/10 04:34:50;;;;;;;12.90;9.18;;;;;;;19.58;100.00;100636.50;5547283;32;33710;-85
2023/07/10 04:37:53;;;;;;;12.77;9.32;;;;;;;19.76;100.00;100626.00;5547267;32;34333;-85
2023/07/10 04:40:56;;;;;;;12.63;9.55;;;;;;;19.99;100.00;100631.31;5545158;32;33740;-85
2023/07/10 04:43:59;;;;;;;21.05;9.65;;;;;;;20.16;100.00;100632.53;5544597;32;33427;-85
2023/07/10 04:47:02;;;;;;;14.30;9.40;;;;;;;20.32;100.00;100631.22;5543917;32;33680;-85
2023/07/10 04:50:05;;;;;;;10.13;8.45;;;;;;;20.50;100.00;100634.13;5543840;32;33551;-85
2023/07/10 04:53:08;;;;;;;14.65;9.02;;;;;;;20.74;100.00;100623.03;5543784;32;33879;-85
2023/07/10 04:56:12;;;;;;;12.95;8.85;;;;;;;20.94;100.00;100627.63;5549574;32;34575;-84
2023/07/10 04:59:15;;;;;;;11.45;8.88;;;;;;;20.98;100.00;100627.22;5551810;32;33785;-84
2023/07/10 05:02:18;;;;;;;12.00;9.05;;;;;;;21.11;99.06;100634.19;5560291;32;34449;-84
2023/07/10 05:05:20;;;;;;;25.80;9.48;;;;;;;21.39;92.98;100631.69;5557644;32;35164;-84
2023/07/10 05:08:26;;;;;;;15.80;8.57;;;;;;;21.59;94.82;100631.69;5547964;32;34168;-84
2023/07/10 05:11:30;;;;;;;9.20;8.30;;;;;;;21.86;96.15;100639.09;5547915;32;33794;-84
2023/07/10 05:14:33;;;;;;;12.00;8.65;;;;;;;22.06;94.05;100642.62;5547435;32;34055;-84
2023/07/10 05:17:36;;;;;;;15.35;9.05;;;;;;;22.25;91.67;100640.87;5547679;32;33554;-84
2023/07/10 05:20:40;;;;;;;11.60;8.50;;;;;;;22.46;90.75;100646.06;5547663;32;34066;-84
2023/07/10 05:23:43;;;;;;;15.02;9.18;;;;;;;22.83;89.12;100644.34;5546537;32;34773;-84
2023/07/10 05:26:45;;;;;;;12.18;8.77;;;;;;;23.26;85.93;100639.25;5523141;32;33830;-84
2023/07/10 05:29:48;;;;;;;13.30;8.90;;;;;;;24.17;80.38;100651.91;5515319;32;33895;-84
2023/07/10 05:32:51;;;;;;;13.05;7.85;;;;;;;25.74;69.79;100642.66;5516405;32;34483;-84
2023/07/10 05:35:56;;;;;;;8.88;7.87;;;;;;;27.24;60.81;100652.09;5530266;32;34256;-85
2023/07/10 05:38:59;;;;;;;11.55;7.82;;;;;;;27.98;57.48;100653.44;5534241;32;33547;-84
2023/07/10 05:42:02;;;;;;;10.23;8.32;;;;;;;28.54;54.73;100655.91;5534199;32;34592;-85
2023/07/10 05:45:06;;;;;;;10.55;7.47;;;;;;;29.52;50.65;100661.13;5534064;32;33889;-85
2023/07/10 05:48:09;;;;;;;10.57;7.90;;;;;;;31.03;46.44;100657.31;5534666;32;34002;-85
2023/07/10 05:51:12;;;;;;;12.25;8.60;;;;;;;32.16;43.01;100668.66;5539984;32;33671;-84
2023/07/10 05:54:14;;;;;;;10.05;7.50;;;;;;;32.00;42.23;100653.47;5546014;32;35077;-85
2023/07/10 05:57:17;;;;;;;10.43;7.15;;;;;;;32.87;40.50;100660.66;5544685;32;34651;-85
2023/07/10 06:00:20;;;;;;;18.02;8.40;;;;;;;33.29;39.68;100663.00;5536370;32;34773;-85
2023/07/10 06:03:23;;;;;;;13.55;8.50;;;;;;;33.05;38.10;100660.00;5534738;32;34963;-85
2023/07/10 06:06:26;;;;;;;12.45;8.05;;;;;;;32.68;38.76;100656.97;5533998;32;33639;-85
2023/07/10 06:09:29;;;;;;;17.05;8.43;;;;;;;33.76;38.13;100645.34;5538305;32;32124;-83
2023/07/10 06:12:35;;;;;;;18.70;8.90;;;;;;;34.16;35.78;100657.06;5537406;32;35133;-85
2023/07/10 06:15:59;;;;;;;16.98;8.88;;;;;;;32.62;38.89;100652.34;5524258;32;33895;-85
2023/07/10 06:19:01;;;;;;;16.15;8.68;;;;;;;33.15;37.42;100648.50;5519079;32;34988;-85
2023/07/10 06:22:07;;;;;;;21.73;8.45;;;;;;;34.01;35.48;100645.34;5533891;32;33945;-85
2023/07/10 06:25:10;;;;;;;14.00;8.23;;;;;;;34.97;35.10;100648.72;5532810;32;34051;-85
2023/07/10 06:28:13;;;;;;;15.57;8.43;;;;;;;36.41;32.94;100647.06;5534411;32;34040;-85
2023/07/10 06:31:16;;;;;;;19.75;8.88;;;;;;;37.05;30.79;100648.91;5535855;32;34151;-85
2023/07/10 06:34:19;;;;;;;14.00;8.52;;;;;;;37.09;30.13;100652.06;5534735;32;35069;-85
2023/07/10 06:37:21;;;;;;;13.65;8.88;;;;;;;35.57;32.77;100640.66;5534037;32;33930;-85
2023/07/10 06:40:24;;;;;;;16.35;8.13;;;;;;;34.73;34.02;100640.34;5532855;32;33669;-85
2023/07/10 06:43:27;;;;;;;14.85;8.60;;;;;;;33.54;38.17;100637.47;5528414;32;34109;-84
2023/07/10 06:46:30;;;;;;;14.43;8.43;;;;;;;32.60;39.91;100635.22;5530137;32;33973;-84
2023/07/10 06:49:33;;;;;;;17.27;9.20;;;;;;;31.91;41.79;100639.12;5530132;32;33500;-83
2023/07/10 06:52:38;;;;;;;19.05;9.00;;;;;;;31.74;40.74;100631.31;5526874;32;33418;-84
2023/07/10 06:55:44;;;;;;;13.25;8.05;;;;;;;31.07;44.31;100628.44;5530614;32;33975;-84
2023/07/10 06:58:47;;;;;;;9.88;8.82;;;;;;;30.72;44.47;100631.31;5529268;32;34030;-84
2023/07/10 07:01:50;;;;;;;12.37;8.38;;;;;;;30.18;44.46;100633.72;5565265;32;33869;-83
2023/07/10 07:04:53;;;;;;;10.07;8.20;;;;;;;30.46;44.00;100627.37;5551282;32;34067;-84
2023/07/10 07:07:55;;;;;;;12.27;8.35;;;;;;;30.43;44.74;100620.41;5552427;32;35242;-85
2023/07/10 07:10:58;;;;;;;14.00;8.38;;;;;;;30.60;43.31;100620.91;5552205;32;34019;-85
2023/07/10 07:14:01;;;;;;;12.85;8.23;;;;;;;30.30;44.09;100621.16;5554646;32;34000;-84
2023/07/10 07:17:05;;;;;;;10.60;7.93;;;;;;;30.76;44.62;100613.41;5552206;32;34025;-85
2023/07/10 07:20:08;;;;;;;12.75;8.50;;;;;;;31.00;44.14;100616.63;5544958;32;33866;-85
2023/07/10 07:23:11;;;;;;;15.45;8.23;;;;;;;31.28;43.01;100615.69;5545820;32;33639;-85
2023/07/10 07:26:13;;;;;;;12.52;8.27;;;;;;;32.10;42.81;100610.00;5541106;32;34472;-84
2023/07/10 07:29:16;;;;;;;13.75;7.85;;;;;;;32.33;41.14;100605.09;5532383;32;34058;-84
2023/07/10 07:32:20;;;;;;;12.65;7.80;;;;;;;32.63;40.36;100612.84;5532661;32;33904;-84
2023/07/10 07:35:23;;;;;;;15.80;7.45;;;;;;;32.69;41.74;100611.97;5533970;32;34068;-84
2023/07/10 07:38:26;;;;;;;16.58;8.88;;;;;;;32.35;40.75;100611.19;5541404;32;34164;-85
2023/07/10 07:41:31;;;;;;;13.30;7.62;;;;;;;32.48;40.67;100602.13;5534215;32;33746;-83
2023/07/10 07:44:34;;;;;;;15.38;7.03;;;;;;;32.44;39.71;100607.19;5540884;32;33417;-83
2023/07/10 07:47:37;;;;;;;12.85;7.50;;;;;;;32.51;41.22;100597.03;5549511;32;34034;-83
2023/07/10 07:50:39;;;;;;;12.70;7.07;;;;;;;32.87;39.93;100604.91;5549094;32;34636;-83
2023/07/10 07:53:42;;;;;;;9.40;6.57;;;;;;;33.18;40.39;100603.25;5546617;32;34260;-84
2023/07/10 07:56:45;;;;;;;11.50;6.82;;;;;;;33.58;37.98;100604.91;5548057;32;33557;-85
2023/07/10 07:59:49;;;;;;;10.80;6.78;;;;;;;33.93;37.46;100604.34;5546784;32;34613;-87
2023/07/10 08:02:52;;;;;;;8.70;6.35;;;;;;;34.15;38.21;100603.94;5546662;32;33907;-87
2023/07/10 08:05:56;;;;;;;7.03;6.22;;;;;;;34.76;36.44;100592.22;5547856;32;34201;-87
2023/07/10 08:08:58;;;;;;;7.12;5.95;;;;;;;35.28;35.20;100599.97;5547923;32;33516;-84
2023/07/10 08:12:02;;;;;;;15.70;6.47;;;;;;;35.42;35.77;100588.72;5547682;32;33694;-83
2023/07/10 08:15:05;;;;;;;6.68;5.95;;;;;;;35.45;35.36;100594.59;5547342;32;34244;-83
2023/07/10 08:18:09;;;;;;;17.23;7.68;;;;;;;36.10;32.54;100588.41;5547773;32;33376;-83
2023/07/10 08:21:13;;;;;;;10.30;6.43;;;;;;;36.11;32.78;100593.72;5547627;32;34618;-83
2023/07/10 08:24:15;;;;;;;5.78;5.18;;;;;;;36.42;33.62;100590.75;5549310;32;33763;-84
2023/07/10 08:27:18;;;;;;;9.55;5.30;;;;;;;36.53;29.34;100594.53;5555659;32;33926;-84
2023/07/10 08:30:21;;;;;;;6.18;5.10;;;;;;;36.75;29.58;100589.22;5559555;32;33781;-83
2023/07/10 08:33:24;;;;;;;6.78;5.10;;;;;;;36.75;29.64;100585.63;5552924;32;33453;-83
2023/07/10 08:36:26;;;;;;;9.35;5.72;;;;;;;36.49;28.94;100594.19;5563334;32;34794;-84
2023/07/10 08:39:29;;;;;;;9.77;5.45;;;;;;;35.89;30.24;100582.41;5568827;32;34547;-83
2023/07/10 08:42:33;;;;;;;20.52;6.00;;;;;;;35.54;30.73;100574.94;5568159;32;34984;-83
2023/07/10 08:45:37;;;;;;;6.10;5.60;;;;;;;36.04;29.84;100570.88;5568069;32;33574;-84
2023/07/10 08:48:46;;;;;;;6.72;5.07;;;;;;;37.31;29.04;100566.44;5568471;32;34988;-84
2023/07/10 08:52:07;;;;;;;6.23;5.47;;;;;;;38.08;25.97;100567.91;5568432;32;33651;-83
2023/07/10 08:55:12;;;;;;;7.68;5.30;;;;;;;37.77;27.24;100576.59;5568191;32;34856;-83
2023/07/10 08:58:21;;;;;;;15.20;6.47;;;;;;;37.85;27.74;100567.03;5567963;32;34172;-84
2023/07/10 09:01:37;;;;;;;9.10;5.53;;;;;;;38.08;27.14;100567.91;5569373;32;33533;-83
2023/07/10 09:04:42;;;;;;;6.05;5.45;;;;;;;38.69;26.81;100565.06;5566866;32;33429;-83
2023/07/10 09:07:46;;;;;;;6.47;5.12;;;;;;;39.04;26.20;100565.69;5551294;32;34960;-83
2023/07/10 09:10:53;;;;;;;7.05;5.55;;;;;;;37.89;28.63;100566.25;5561878;32;33401;-82
2023/07/10 09:14:30;;;;;;;7.80;5.35;;;;;;;38.78;26.67;100565.41;5570915;32;34770;-83
2023/07/10 09:17:55;;;;;;;8.32;5.80;;;;;;;38.93;26.12;100569.44;5556642;32;33316;-87
2023/07/10 09:21:00;;;;;;;9.38;5.68;;;;;;;37.79;27.31;100571.63;5546757;32;34568;-84
2023/07/10 09:24:04;;;;;;;6.35;5.15;;;;;;;36.39;29.91;100572.75;5550952;32;33563;-83
2023/07/10 09:27:14;;;;;;;7.35;5.53;;;;;;;36.74;28.78;100562.66;5551716;32;33772;-83
2023/07/10 09:30:40;;;;;;;8.68;5.95;;;;;;;36.58;29.50;100557.94;5551318;32;33719;-83
2023/07/10 09:33:51;;;;;;;7.65;5.75;;;;;;;36.84;29.90;100552.91;5551437;32;34121;-82
2023/07/10 09:36:56;;;;;;;6.97;5.85;;;;;;;36.90;30.10;100543.62;5560142;32;33764;-82
2023/07/10 09:40:18;;;;;;;7.65;5.95;;;;;;;37.44;29.66;100531.22;5560939;32;33864;-83
2023/07/10 09:43:23;;;;;;;7.47;5.78;;;;;;;37.99;29.29;100539.78;5568222;32;34076;-83
2023/07/10 09:46:29;;;;;;;8.98;5.65;;;;;;;38.90;28.46;100531.16;5555043;32;33908;-84
2023/07/10 09:49:36;;;;;;;6.75;5.53;;;;;;;40.38;26.60;100542.69;5534264;32;34568;-83
2023/07/10 09:52:41;;;;;;;9.73;5.85;;;;;;;41.06;24.55;100526.09;5538424;32;34147;-83
2023/07/10 09:55:43;;;;;;;8.65;5.70;;;;;;;40.77;24.08;100527.44;5551835;32;33668;-84
2023/07/10 09:58:46;;;;;;;6.95;5.75;;;;;;;40.54;24.62;100532.44;5552400;32;33854;-84
2023/07/10 10:01:50;;;;;;;6.70;5.40;;;;;;;40.46;24.12;100535.75;5552020;32;33981;-84
2023/07/10 10:05:07;;;;;;;6.82;5.87;;;;;;;39.95;24.37;100534.44;5552712;32;33864;-84
2023/07/10 10:08:21;;;;;;;17.20;5.82;;;;;;;40.02;25.07;100532.25;5553095;32;34015;-84
2023/07/10 10:11:34;;;;;;;6.03;5.40;;;;;;;38.62;27.09;100513.69;5559647;32;34345;-88
2023/07/10 10:15:06;;;;;;;6.65;5.47;;;;;;;38.64;26.21;100512.34;5554968;32;34136;-85
2023/07/10 10:18:35;;;;;;;7.05;5.65;;;;;;;39.24;25.93;100510.66;5555974;32;33976;-85
2023/07/10 10:21:39;;;;;;;6.17;5.57;;;;;;;39.81;25.56;100508.25;5548674;32;33675;-84
2023/07/10 10:24:42;;;;;;;8.65;5.75;;;;;;;39.21;25.93;100507.31;5555062;32;34073;-85
2023/07/10 10:27:57;;;;;;;6.85;5.57;;;;;;;40.36;24.94;100507.94;5558915;32;34666;-85
2023/07/10 10:31:04;;;;;;;6.85;5.35;;;;;;;41.65;23.06;100514.63;5550614;32;33402;-84
2023/07/10 10:34:26;;;;;;;7.20;5.87;;;;;;;42.79;21.81;100505.72;5551484;32;33675;-84
2023/07/10 10:37:35;;;;;;;7.20;5.70;;;;;;;43.03;21.30;100499.41;5555156;32;33542;-85
2023/07/10 10:40:51;;;;;;;;;;;;;;;43.25;21.42;100504.50;5559196;32;33879;-84
2023/07/10 10:44:25;;;;;;;6.45;5.62;;;;;;;41.47;23.07;100491.88;5567257;32;34618;-85
2023/07/10 10:47:40;;;;;;;10.73;6.28;;;;;;;41.19;23.57;100494.97;5562655;32;34077;-85
2023/07/10 10:50:53;;;;;;;6.28;5.32;;;;;;;39.92;25.10;100489.72;5553822;32;33888;-85
2023/07/10 10:54:17;;;;;;;7.28;5.95;;;;;;;39.50;26.56;100486.72;5549660;32;33942;-85
2023/07/10 10:57:45;;;;;;;6.50;5.90;;;;;;;39.72;25.73;100486.53;5554706;32;33955;-85
2023/07/10 11:01:15;;;;;;;5.90;5.35;;;;;;;39.33;26.21;100484.09;5559198;32;34715;-85
2023/07/10 11:04:21;;;;;;;7.15;6.20;;;;;;;38.93;27.73;100476.03;5548365;32;34791;-85
2023/07/10 11:07:25;;;;;;;8.15;5.87;;;;;;;38.17;29.13;100483.28;5550247;32;34343;-84
2023/07/10 11:10:37;;;;;;;6.68;5.40;;;;;;;39.06;25.02;100479.47;5534232;32;33402;-85
2023/07/10 11:13:40;;;;;;;8.00;5.57;;;;;;;38.29;25.51;100469.28;5543010;32;33795;-84
2023/07/10 11:16:44;;;;;;;11.75;6.20;;;;;;;36.90;27.26;100464.28;5545955;32;33498;-84
2023/07/10 11:19:48;;;;;;;7.47;5.65;;;;;;;37.20;28.36;100468.66;5544373;32;34513;-85
2023/07/10 11:22:54;;;;;;;5.93;5.43;;;;;;;38.01;27.49;100462.88;5549593;32;34055;-84
2023/07/10 11:26:22;;;;;;;7.70;5.62;;;;;;;38.28;27.48;100457.37;5540594;32;33753;-84
2023/07/10 11:29:34;;;;;;;8.98;5.90;;;;;;;38.06;27.88;100451.88;5552932;32;33974;-86
2023/07/10 11:32:55;;;;;;;7.43;5.65;;;;;;;37.73;29.23;100465.56;5551501;32;33880;-85
2023/07/10 11:36:44;;;;;;;7.12;6.15;;;;;;;37.58;28.23;100457.91;5552209;32;33487;-86
2023/07/10 11:39:46;;;;;;;7.12;5.53;;;;;;;37.71;28.13;100451.13;5540615;32;34777;-85
2023/07/10 11:42:50;;;;;;;7.25;5.78;;;;;;;37.84;26.88;100440.78;5548220;32;34315;-85
2023/07/10 11:46:24;;;;;;;9.05;5.55;;;;;;;37.34;27.67;100447.03;5546287;32;33766;-84
2023/07/10 11:49:33;;;;;;;6.85;6.18;;;;;;;36.44;28.88;100442.19;5540641;32;33482;-85
2023/07/10 11:52:36;;;;;;;7.95;5.78;;;;;;;36.89;27.56;100434.97;5554559;32;33646;-84
2023/07/10 11:55:58;;;;;;;6.25;5.65;;;;;;;37.00;26.84;100433.22;5559066;32;34506;-85
2023/07/10 11:59:19;;;;;;;5.90;5.30;;;;;;;37.16;26.96;100426.00;5551333;32;34071;-89
2023/07/10 12:02:25;;;;;;;6.47;5.87;;;;;;;37.75;26.78;100423.78;5565904;32;34815;-85
2023/07/10 12:05:35;;;;;;;6.55;5.60;;;;;;;36.70;27.52;100417.00;5567250;32;34823;-84
2023/07/10 12:08:39;;;;;;;6.85;5.57;;;;;;;36.09;28.62;100421.94;5556649;32;34228;-84
2023/07/10 12:11:42;;;;;;;6.85;6.00;;;;;;;35.69;27.56;100423.59;5561821;32;33367;-85
2023/07/10 12:14:44;;;;;;;17.10;5.57;;;;;;;36.60;27.96;100418.47;5553878;32;34117;-85
2023/07/10 12:17:49;;;;;;;6.00;5.50;;;;;;;36.86;27.43;100415.31;5552741;32;34474;-85
2023/07/10 12:21:00;;;;;;;9.15;5.45;;;;;;;37.01;26.56;100414.72;5546155;32;34650;-83
2023/07/10 12:24:03;;;;;;;10.10;5.78;;;;;;;36.21;28.44;100404.50;5557268;32;34291;-84
2023/07/10 12:27:10;;;;;;;6.47;5.82;;;;;;;36.09;28.60;100407.31;5553183;32;33720;-85
2023/07/10 12:30:22;;;;;;;7.50;5.85;;;;;;;36.54;27.65;100403.72;5554410;32;34444;-85
2023/07/10 12:33:41;;;;;;;8.93;5.57;;;;;;;35.55;28.05;100409.22;5540965;32;34808;-85
2023/07/10 12:36:48;;;;;;;;;;;;;;;35.50;29.50;100411.03;5551423;32;33842;-85
2023/07/10 12:39:51;;;;;;;8.18;5.72;;;;;;;35.78;27.23;100399.25;5552198;32;34120;-85
2023/07/10 12:42:55;;;;;;;6.97;6.22;;;;;;;35.40;28.88;100404.22;5550763;32;33374;-85
2023/07/10 12:46:04;;;;;;;8.10;5.93;;;;;;;34.33;28.64;100407.66;5533898;32;33686;-85
2023/07/10 12:49:13;;;;;;;7.80;5.60;;;;;;;34.87;29.29;100412.34;5557573;32;33780;-84
2023/07/10 12:52:17;;;;;;;6.80;5.60;;;;;;;35.37;27.98;100421.25;5556062;32;34569;-85
2023/07/10 12:55:20;;;;;;;7.75;5.72;;;;;;;35.55;28.04;100413.91;5565384;32;34575;-85
2023/07/10 12:58:23;;;;;;;8.88;5.80;;;;;;;35.76;26.30;100412.44;5567093;32;33979;-85
2023/07/10 13:01:32;;;;;;;7.18;5.60;;;;;;;35.55;27.50;100411.97;5561874;32;33358;-84
2023/07/10 13:04:39;;;;;;;13.85;6.15;;;;;;;35.55;27.01;100411.16;5554536;32;33482;-85
2023/07/10 13:07:42;;;;;;;10.55;5.97;;;;;;;34.29;28.96;100403.72;5552376;32;34873;-89
2023/07/10 13:10:45;;;;;;;9.48;6.25;;;;;;;34.24;29.83;100404.38;5560693;32;34778;-89
2023/07/10 13:13:49;;;;;;;7.18;5.72;;;;;;;33.90;30.12;100394.88;5561137;32;34024;-89
2023/07/10 13:17:11;;;;;;;6.37;5.70;;;;;;;34.27;29.40;100398.44;5569639;32;33360;-85
2023/07/10 13:20:23;;;;;;;7.80;6.15;;;;;;;34.34;31.07;100397.50;5557226;32;34803;-85
2023/07/10 13:23:26;;;;;;;7.57;5.87;;;;;;;33.78;30.18;100401.16;5559017;32;33451;-85
2023/07/10 13:26:29;;;;;;;7.95;5.82;;;;;;;34.19;30.22;100396.00;5548040;32;34012;-85
2023/07/10 13:29:32;;;;;;;8.82;5.85;;;;;;;34.38;29.55;100399.53;5542639;32;33831;-85
2023/07/10 13:32:37;;;;;;;8.57;5.32;;;;;;;34.64;29.43;100386.44;5562488;32;33974;-86
2023/07/10 13:35:40;;;;;;;6.37;5.03;;;;;;;35.11;25.92;100400.53;5550543;32;33501;-85
2023/07/10 13:38:44;;;;;;;7.37;5.20;;;;;;;35.39;26.48;100397.00;5551154;32;34522;-84
2023/07/10 13:41:47;;;;;;;6.57;5.93;;;;;;;35.21;27.12;100393.31;5556977;32;34820;-84
2023/07/10 13:44:51;;;;;;;10.35;6.07;;;;;;;34.76;27.31;100393.88;5553884;32;33845;-84
2023/07/10 13:47:53;;;;;;;9.55;6.65;;;;;;;34.60;28.91;100385.25;5556376;32;34935;-87
2023/07/10 13:50:56;;;;;;;7.20;5.82;;;;;;;34.58;27.72;100392.06;5554766;32;33930;-85
2023/07/10 13:53:59;;;;;;;8.30;5.72;;;;;;;34.62;27.62;100385.84;5557493;32;34467;-84
2023/07/10 13:57:14;;;;;;;8.02;5.87;;;;;;;34.76;28.42;100380.13;5559739;32;33719;-85
2023/07/10 14:00:17;;;;;;;9.30;6.07;;;;;;;34.66;28.89;100384.31;5547787;32;34835;-84
2023/07/10 14:03:21;;;;;;;7.70;5.97;;;;;;;34.91;29.14;100377.75;5563329;32;33749;-84
2023/07/10 14:06:24;;;;;;;6.57;5.97;;;;;;;35.29;28.30;100375.56;5567839;32;33844;-84
2023/07/10 14:09:30;;;;;;;9.25;6.00;;;;;;;34.94;27.96;100366.22;5555752;32;34054;-84
2023/07/10 14:12:32;;;;;;;7.87;6.10;;;;;;;35.13;27.88;100368.87;5566672;32;34752;-84
2023/07/10 14:15:41;;;;;;;8.48;6.07;;;;;;;34.89;28.29;100368.03;5564399;32;34108;-84
2023/07/10 14:18:44;;;;;;;7.47;6.12;;;;;;;34.59;28.02;100361.53;5569450;32;34259;-84
2023/07/10 14:21:47;;;;;;;6.32;5.72;;;;;;;34.80;27.31;100353.78;5555386;32;34405;-84
2023/07/10 14:24:50;;;;;;;8.90;6.25;;;;;;;34.77;29.07;100357.00;5552763;32;33867;-84
2023/07/10 14:27:52;;;;;;;8.10;6.10;;;;;;;34.65;29.82;100351.50;5552838;32;34663;-84
2023/07/10 14:30:55;;;;;;;6.62;5.82;;;;;;;34.56;30.47;100356.47;5552336;32;34501;-84
2023/07/10 14:33:58;;;;;;;9.07;5.85;;;;;;;34.06;29.34;100350.25;5552392;32;33980;-84
2023/07/10 14:37:00;;;;;;;6.10;5.60;;;;;;;34.31;29.29;100354.75;5552344;32;34339;-84
2023/07/10 14:40:04;;;;;;;7.28;5.97;;;;;;;34.04;28.81;100354.31;5553200;32;34500;-84
2023/07/10 14:43:09;;;;;;;7.28;6.05;;;;;;;34.16;29.48;100354.34;5554666;32;33824;-84
2023/07/10 14:46:37;;;;;;;9.05;5.78;;;;;;;34.21;29.45;100349.81;5554787;32;34033;-84
2023/07/10 14:49:40;;;;;;;5.80;5.20;;;;;;;33.60;29.90;100349.78;5552177;32;34118;-83
2023/07/10 14:52:43;;;;;;;6.25;5.65;;;;;;;33.97;29.34;100346.09;5536491;32;34165;-84
2023/07/10 14:55:49;;;;;;;8.05;5.93;;;;;;;34.25;29.39;100351.00;5539348;32;33849;-84
2023/07/10 14:58:52;;;;;;;8.80;6.05;;;;;;;34.38;29.04;100358.25;5536711;32;33687;-83
2023/07/10 15:01:55;;;;;;;7.78;6.25;;;;;;;34.01;30.93;100352.84;5561496;32;33872;-84
2023/07/10 15:04:58;;;;;;;8.68;6.40;;;;;;;34.32;30.81;100352.81;5562085;32;34663;-84
2023/07/10 15:08:00;;;;;;;8.88;6.30;;;;;;;34.18;31.40;100342.03;5563770;32;33895;-84
2023/07/10 15:11:04;;;;;;;7.85;6.43;;;;;;;34.27;30.29;100342.53;5552655;32;34999;-83
2023/07/10 15:14:13;;;;;;;10.93;6.05;;;;;;;34.33;30.37;100341.59;5552201;32;34544;-84
2023/07/10 15:17:23;;;;;;;7.53;6.03;;;;;;;33.97;31.60;100335.97;5552572;32;33696;-83
2023/07/10 15:20:26;;;;;;;7.82;6.03;;;;;;;33.89;29.93;100350.06;5552742;32;33904;-84
